Time;durP1;ratioP1;P1;durP2;ratioP2;P2;SDS_P1;SDS_P2;PMS_P1;PMS_P2;Temp;Humidity;BMP_temperature;BMP_pressure;BME280_temperature;BME280_humidity;BME280_pressure;Samples;Min_cycle;Max_cycle;Signal;HPM_P1;HPM_P2
2022/10/01 00:01:54;;;;;;;3.85;0.40;;;;;;;14.14;100.00;100378.50;5028583;28;20053;-84
2022/10/01 00:04:19;;;;;;;2.03;0.40;;;;;;;14.17;100.00;100388.66;5035141;28;20118;-85
2022/10/01 00:06:45;;;;;;;2.60;0.45;;;;;;;14.18;100.00;100383.22;5010626;28;20032;-85
2022/10/01 00:09:10;;;;;;;4.00;0.30;;;;;;;14.16;100.00;100384.41;5028730;28;20491;-84
2022/10/01 00:11:36;;;;;;;1.55;0.28;;;;;;;14.09;100.00;100396.53;5031148;28;20033;-82
2022/10/01 00:14:01;;;;;;;2.90;0.38;;;;;;;14.11;100.00;100392.75;5047668;28;20052;-84
2022/10/01 00:16:29;;;;;;;1.70;0.30;;;;;;;14.14;100.00;100384.56;5011072;28;20021;-83
2022/10/01 00:18:56;;;;;;;1.30;0.40;;;;;;;14.09;100.00;100391.28;5028614;28;20152;-84
2022/10/01 00:21:27;;;;;;;3.10;0.47;;;;;;;14.07;100.00;100396.69;5042666;28;20025;-85
2022/10/01 00:24:04;;;;;;;3.72;0.40;;;;;;;13.99;100.00;100394.09;5048455;28;20028;-84
2022/10/01 00:26:32;;;;;;;0.90;0.40;;;;;;;13.95;100.00;100392.81;5048326;28;20159;-84
2022/10/01 00:29:00;;;;;;;1.25;0.30;;;;;;;13.93;100.00;100395.59;5039278;28;20037;-85
2022/10/01 00:31:27;;;;;;;2.58;0.50;;;;;;;13.97;100.00;100401.31;5027732;28;20032;-84
2022/10/01 00:33:53;;;;;;;1.48;0.40;;;;;;;13.98;100.00;100396.91;5027859;28;20051;-84
2022/10/01 00:36:19;;;;;;;2.95;0.20;;;;;;;13.87;100.00;100396.25;5046958;28;20390;-81
2022/10/01 00:38:46;;;;;;;2.63;0.22;;;;;;;13.81;100.00;100406.59;5048662;28;20178;-81
2022/10/01 00:41:13;;;;;;;0.40;0.20;;;;;;;13.76;100.00;100414.13;5030757;28;20017;-82
2022/10/01 00:43:46;;;;;;;2.35;0.22;;;;;;;13.75;100.00;100404.63;5044328;28;20527;-84
2022/10/01 00:46:22;;;;;;;1.55;0.10;;;;;;;13.75;100.00;100397.59;5027984;28;20156;-82
2022/10/01 00:49:10;;;;;;;2.20;0.20;;;;;;;13.73;100.00;100411.81;5010250;28;20036;-84
2022/10/01 00:51:41;;;;;;;1.60;0.22;;;;;;;13.76;100.00;100412.31;5028805;28;20033;-84
2022/10/01 00:54:16;;;;;;;0.82;0.30;;;;;;;13.81;100.00;100399.53;5030942;28;20393;-82
2022/10/01 00:56:42;;;;;;;1.92;0.30;;;;;;;13.88;100.00;100405.75;5032373;28;20033;-83
2022/10/01 00:59:09;;;;;;;1.67;0.20;;;;;;;13.93;100.00;100405.25;5018776;28;20698;-84
2022/10/01 01:01:37;;;;;;;0.70;0.20;;;;;;;13.88;100.00;100403.13;5052036;28;20032;-83
2022/10/01 01:04:03;;;;;;;2.97;0.50;;;;;;;13.89;100.00;100396.91;5034254;28;20036;-84
2022/10/01 01:06:29;;;;;;;2.47;0.30;;;;;;;13.97;100.00;100390.84;5051628;28;20037;-84
2022/10/01 01:08:55;;;;;;;2.28;0.30;;;;;;;13.99;100.00;100394.09;5051916;28;20048;-84
2022/10/01 01:11:52;;;;;;;2.28;0.40;;;;;;;13.95;100.00;100384.94;5051717;28;20020;-84
2022/10/01 01:14:32;;;;;;;3.28;0.40;;;;;;;13.92;100.00;100383.47;5043926;28;20045;-85
2022/10/01 01:17:07;;;;;;;2.45;0.40;;;;;;;13.94;100.00;100386.75;5051773;28;20045;-84
2022/10/01 01:19:42;;;;;;;2.10;0.50;;;;;;;13.98;100.00;100387.22;5051342;28;20133;-84
2022/10/01 01:22:12;;;;;;;2.43;0.40;;;;;;;14.03;100.00;100382.31;5033498;28;20033;-83
2022/10/01 01:24:37;;;;;;;2.40;0.50;;;;;;;14.06;100.00;100387.22;5052151;28;20121;-83
2022/10/01 01:27:07;;;;;;;7.32;0.63;;;;;;;14.00;100.00;100385.25;5052433;28;20104;-83
2022/10/01 01:29:42;;;;;;;2.78;0.45;;;;;;;13.96;100.00;100389.19;5028115;28;20022;-82
2022/10/01 01:32:13;;;;;;;3.63;0.55;;;;;;;13.98;100.00;100392.47;5032554;28;20064;-84
2022/10/01 01:34:42;;;;;;;1.08;0.35;;;;;;;14.03;100.00;100395.41;5032184;28;20042;-83
2022/10/01 01:37:11;;;;;;;3.47;0.82;;;;;;;14.07;100.00;100401.13;5032078;28;20026;-83
2022/10/01 01:39:41;;;;;;;1.88;0.30;;;;;;;14.02;100.00;100399.00;5035410;28;20178;-83
2022/10/01 01:42:13;;;;;;;0.75;0.30;;;;;;;13.93;100.00;100385.13;5049112;28;20029;-84
2022/10/01 01:44:43;;;;;;;1.65;0.30;;;;;;;13.93;100.00;100384.28;5050213;28;20507;-82
2022/10/01 01:47:10;;;;;;;0.77;0.30;;;;;;;13.92;100.00;100380.03;5051413;28;20372;-83
2022/10/01 01:49:38;;;;;;;0.93;0.35;;;;;;;13.92;100.00;100372.19;5050968;28;20412;-83
2022/10/01 01:52:16;;;;;;;0.77;0.40;;;;;;;13.92;100.00;100383.47;5030193;28;20029;-85
2022/10/01 01:54:48;;;;;;;1.67;0.38;;;;;;;13.95;100.00;100377.09;5031035;28;20029;-84
2022/10/01 01:57:16;;;;;;;0.65;0.30;;;;;;;14.00;100.00;100387.06;5012238;28;20026;-82
2022/10/01 01:59:42;;;;;;;2.25;0.43;;;;;;;14.05;100.00;100395.25;5030386;28;21473;-83
2022/10/01 02:02:38;;;;;;;1.48;0.85;;;;;;;14.06;100.00;100395.06;5046329;28;20036;-84
2022/10/01 02:05:14;;;;;;;4.60;0.60;;;;;;;14.08;100.00;100405.38;5033783;28;20099;-84
2022/10/01 02:07:56;;;;;;;1.58;0.55;;;;;;;13.97;100.00;100409.16;5050736;28;20024;-82
2022/10/01 02:10:27;;;;;;;2.67;0.50;;;;;;;13.93;100.00;100407.88;5048862;28;20025;-82
2022/10/01 02:13:13;;;;;;;2.53;0.50;;;;;;;13.84;100.00;100411.47;5050562;28;20540;-83
2022/10/01 02:16:03;;;;;;;1.73;0.40;;;;;;;13.79;100.00;100408.53;5049534;28;20448;-82
2022/10/01 02:18:45;;;;;;;1.30;0.50;;;;;;;13.72;100.00;100412.81;5050720;28;20037;-86
2022/10/01 02:22:01;;;;;;;1.10;0.50;;;;;;;13.72;100.00;100412.81;5050333;28;20072;-82
2022/10/01 02:24:32;;;;;;;2.72;0.60;;;;;;;13.78;100.00;100410.34;5005669;28;20045;-84
2022/10/01 02:27:02;;;;;;;2.50;0.55;;;;;;;13.86;100.00;100404.28;5050524;28;20036;-84
2022/10/01 02:29:28;;;;;;;2.50;0.70;;;;;;;13.91;100.00;100409.84;5051021;28;20068;-84
2022/10/01 02:31:56;;;;;;;1.38;0.50;;;;;;;13.97;100.00;100411.78;5050832;28;20516;-82
2022/10/01 02:34:27;;;;;;;1.52;0.40;;;;;;;13.94;100.00;100412.13;5050894;28;20107;-82
2022/10/01 02:36:56;;;;;;;2.67;0.50;;;;;;;13.95;100.00;100416.38;5050932;28;20158;-83
2022/10/01 02:39:24;;;;;;;2.85;0.63;;;;;;;13.96;100.00;100423.25;5050729;28;20167;-82
2022/10/01 02:41:52;;;;;;;4.82;0.40;;;;;;;13.98;100.00;100418.66;5329803;22;20069;-85
2022/10/01 02:44:22;;;;;;;1.55;0.50;;;;;;;14.01;100.00;100423.56;5029702;28;20080;-85
2022/10/01 02:47:13;;;;;;;3.35;0.60;;;;;;;14.02;100.00;100419.97;5029890;28;20496;-84
2022/10/01 02:49:40;;;;;;;3.05;0.40;;;;;;;14.04;100.00;100420.63;5012162;28;20087;-82
2022/10/01 02:52:20;;;;;;;1.40;0.60;;;;;;;14.07;100.00;100425.53;5029466;28;20060;-84
2022/10/01 02:54:53;;;;;;;2.42;0.65;;;;;;;14.12;100.00;100431.06;5011392;28;20055;-84
2022/10/01 02:57:22;;;;;;;4.00;0.68;;;;;;;14.17;100.00;100438.44;5029333;28;20029;-83
2022/10/01 02:59:48;;;;;;;3.45;0.50;;;;;;;14.20;100.00;100446.75;5011265;28;20033;-83
2022/10/01 03:02:14;;;;;;;5.93;0.57;;;;;;;14.23;100.00;100446.41;5029645;28;20033;-84
2022/10/01 03:04:40;;;;;;;2.65;0.50;;;;;;;14.25;100.00;100439.19;5029804;28;20087;-82
2022/10/01 03:07:05;;;;;;;3.08;0.50;;;;;;;14.25;100.00;100441.81;5029326;28;20108;-85
2022/10/01 03:09:31;;;;;;;3.75;0.52;;;;;;;14.20;100.00;100440.69;5029391;28;20034;-84
2022/10/01 03:11:58;;;;;;;1.77;0.35;;;;;;;14.05;100.00;100440.59;5011026;28;20075;-83
2022/10/01 03:14:24;;;;;;;1.83;0.38;;;;;;;14.01;100.00;100441.91;5028422;28;20126;-82
2022/10/01 03:16:51;;;;;;;3.70;0.40;;;;;;;13.97;100.00;100439.78;5029325;28;20481;-85
2022/10/01 03:19:16;;;;;;;2.65;0.40;;;;;;;13.95;100.00;100447.81;5029200;28;20025;-85
2022/10/01 03:21:42;;;;;;;0.77;0.30;;;;;;;13.98;100.00;100451.91;5030444;28;20460;-84
2022/10/01 03:24:07;;;;;;;1.50;0.38;;;;;;;13.97;100.00;100448.47;5020368;28;20033;-83
2022/10/01 03:26:33;;;;;;;0.88;0.30;;;;;;;13.97;100.00;100450.25;5049625;28;20025;-82
2022/10/01 03:28:58;;;;;;;1.05;0.30;;;;;;;13.98;100.00;100444.03;5031136;28;20039;-85
2022/10/01 03:31:24;;;;;;;1.67;0.30;;;;;;;13.97;100.00;100440.59;5030942;28;20021;-83
2022/10/01 03:33:49;;;;;;;2.42;0.30;;;;;;;13.99;100.00;100437.81;5049180;28;20103;-83
2022/10/01 03:36:15;;;;;;;0.80;0.30;;;;;;;13.94;100.00;100435.69;5048672;28;20155;-85
2022/10/01 03:38:40;;;;;;;3.63;0.45;;;;;;;13.91;100.00;100438.66;5049000;28;20024;-85
2022/10/01 03:41:06;;;;;;;3.90;0.65;;;;;;;13.92;100.00;100441.09;5029676;28;20075;-82
2022/10/01 03:43:31;;;;;;;2.70;0.65;;;;;;;13.92;100.00;100441.09;5013798;28;20040;-82
2022/10/01 03:45:56;;;;;;;1.73;0.60;;;;;;;13.93;100.00;100441.91;5011300;28;20025;-84
2022/10/01 03:48:22;;;;;;;3.28;0.80;;;;;;;13.94;100.00;100427.84;5047580;28;20099;-82
2022/10/01 03:50:56;;;;;;;1.58;0.93;;;;;;;13.96;100.00;100425.88;5049563;28;20402;-83
2022/10/01 03:53:23;;;;;;;2.70;1.10;;;;;;;14.00;100.00;100427.19;5017610;28;20041;-84
2022/10/01 03:55:49;;;;;;;1.77;0.88;;;;;;;14.03;100.00;100424.22;5029402;28;20025;-84
2022/10/01 03:58:15;;;;;;;3.47;0.98;;;;;;;14.06;100.00;100423.88;5011841;28;20087;-83
2022/10/01 04:00:42;;;;;;;2.88;0.65;;;;;;;14.06;100.00;100420.44;5029888;28;20029;-85
2022/10/01 04:03:08;;;;;;;1.38;0.57;;;;;;;14.07;100.00;100428.13;5043044;28;20052;-83
2022/10/01 04:05:33;;;;;;;5.07;0.30;;;;;;;14.07;100.00;100432.56;5011334;28;20045;-83
2022/10/01 04:07:59;;;;;;;1.45;0.40;;;;;;;14.06;100.00;100421.28;5029440;28;20029;-86
2022/10/01 04:10:25;;;;;;;1.30;0.52;;;;;;;14.06;100.00;100421.28;5029197;28;20022;-85
2022/10/01 04:12:50;;;;;;;1.88;0.30;;;;;;;14.06;100.00;100420.44;5030323;28;20823;-84
2022/10/01 04:15:16;;;;;;;1.70;0.50;;;;;;;14.07;100.00;100422.09;5011385;28;20037;-85
2022/10/01 04:17:41;;;;;;;1.15;0.20;;;;;;;14.06;100.00;100420.44;5038635;28;20025;-83
2022/10/01 04:20:07;;;;;;;1.33;0.30;;;;;;;14.06;100.00;100423.88;5048714;28;20459;-84
2022/10/01 04:22:39;;;;;;;1.10;0.40;;;;;;;14.02;100.00;100419.16;5028608;28;20029;-83
2022/10/01 04:25:07;;;;;;;3.05;0.47;;;;;;;14.03;100.00;100418.16;5010465;28;20038;-85
2022/10/01 04:27:32;;;;;;;1.77;0.30;;;;;;;14.01;100.00;100420.13;5028250;28;20033;-82
2022/10/01 04:29:58;;;;;;;1.60;0.40;;;;;;;13.98;100.00;100423.09;5010882;28;20376;-85
2022/10/01 04:32:23;;;;;;;2.60;0.50;;;;;;;13.96;100.00;100428.50;5032692;28;20403;-83
2022/10/01 04:34:51;;;;;;;1.63;0.50;;;;;;;13.93;100.00;100416.53;5047237;28;20025;-85
2022/10/01 04:37:18;;;;;;;1.70;0.40;;;;;;;13.96;100.00;100415.41;5030512;28;20098;-83
2022/10/01 04:39:43;;;;;;;1.60;0.70;;;;;;;13.97;100.00;100410.97;5048321;28;20025;-84
2022/10/01 04:42:09;;;;;;;2.58;0.63;;;;;;;13.98;100.00;100408.19;5047455;28;20060;-84
2022/10/01 04:44:34;;;;;;;2.30;0.40;;;;;;;13.97;100.00;100406.56;5046198;28;20035;-84
2022/10/01 04:47:00;;;;;;;3.03;0.57;;;;;;;14.00;100.00;100406.22;5046982;28;20435;-84
2022/10/01 04:49:26;;;;;;;7.22;3.05;;;;;;;14.02;100.00;100411.28;5028166;28;20049;-83
2022/10/01 04:51:51;;;;;;;11.70;2.88;;;;;;;14.03;100.00;100416.38;5028248;28;20036;-84
2022/10/01 04:54:17;;;;;;;8.20;2.60;;;;;;;14.04;100.00;100417.19;5038502;28;20033;-83
2022/10/01 04:56:42;;;;;;;7.65;2.10;;;;;;;14.10;100.00;100427.81;5028464;28;20118;-82
2022/10/01 04:59:08;;;;;;;8.05;3.08;;;;;;;14.13;100.00;100424.84;5047887;28;20329;-82
2022/10/01 05:01:33;;;;;;;7.45;2.22;;;;;;;14.24;100.00;100429.72;5036717;28;20072;-85
2022/10/01 05:03:58;;;;;;;11.45;2.60;;;;;;;14.40;100.00;100428.03;5027944;28;20018;-84
2022/10/01 05:06:24;;;;;;;9.13;4.20;;;;;;;14.46;100.00;100432.63;5028098;28;20037;-85
2022/10/01 05:08:52;;;;;;;13.60;5.13;;;;;;;14.44;100.00;100434.59;5028180;28;20032;-82
2022/10/01 05:11:18;;;;;;;10.80;4.03;;;;;;;14.42;100.00;100441.81;5042329;28;20025;-83
2022/10/01 05:13:44;;;;;;;12.55;3.92;;;;;;;14.44;100.00;100437.22;5047865;28;20036;-83
2022/10/01 05:16:10;;;;;;;7.30;2.25;;;;;;;14.48;100.00;100439.31;5030597;28;20067;-84
2022/10/01 05:18:38;;;;;;;14.80;4.00;;;;;;;14.39;100.00;100442.94;5047247;28;20017;-84
2022/10/01 05:21:07;;;;;;;9.10;3.58;;;;;;;14.32;100.00;100454.25;5048647;28;20108;-84
2022/10/01 05:23:33;;;;;;;10.00;5.15;;;;;;;14.29;100.00;100452.78;5048416;28;20037;-84
2022/10/01 05:25:59;;;;;;;10.57;4.32;;;;;;;14.27;100.00;100452.97;5030490;28;20495;-83
2022/10/01 05:28:25;;;;;;;8.43;3.33;;;;;;;14.29;100.00;100458.84;5044840;28;20027;-83
2022/10/01 05:30:51;;;;;;;11.52;3.08;;;;;;;14.29;100.00;100455.41;5028803;28;20045;-83
2022/10/01 05:33:16;;;;;;;4.45;1.88;;;;;;;14.31;100.00;100455.25;5032674;28;20025;-83
2022/10/01 05:35:43;;;;;;;3.58;1.52;;;;;;;14.26;100.00;100453.94;5014569;28;20056;-86
2022/10/01 05:38:08;;;;;;;4.78;1.20;;;;;;;14.23;100.00;100450.84;5030152;28;20112;-85
2022/10/01 05:40:34;;;;;;;3.17;1.20;;;;;;;14.22;100.00;100459.69;5046628;28;20074;-84
2022/10/01 05:43:03;;;;;;;2.28;0.65;;;;;;;14.22;100.00;100457.06;5050607;28;20053;-83
2022/10/01 05:45:29;;;;;;;1.58;0.77;;;;;;;14.24;100.00;100455.09;5047373;28;20017;-83
2022/10/01 05:48:00;;;;;;;2.00;0.90;;;;;;;14.25;100.00;100449.69;5035749;28;20492;-81
2022/10/01 05:50:27;;;;;;;1.35;0.60;;;;;;;14.26;100.00;100456.56;5045549;28;20037;-83
2022/10/01 05:52:53;;;;;;;3.38;0.70;;;;;;;14.30;100.00;100449.19;5027879;28;20537;-81
2022/10/01 05:55:19;;;;;;;2.20;0.63;;;;;;;14.34;100.00;100455.72;5045265;28;20022;-81
2022/10/01 05:57:56;;;;;;;3.08;0.80;;;;;;;14.40;100.00;100456.84;5046359;28;20053;-83
2022/10/01 06:00:22;;;;;;;2.70;0.90;;;;;;;14.47;100.00;100463.09;5034128;28;20149;-84
2022/10/01 06:02:51;;;;;;;2.95;1.17;;;;;;;14.53;100.00;100468.47;5031220;28;20246;-84
2022/10/01 06:05:18;;;;;;;3.83;1.08;;;;;;;14.58;100.00;100467.97;5043327;28;20033;-83
2022/10/01 06:07:43;;;;;;;4.90;0.98;;;;;;;14.62;100.00;100469.25;5033400;28;20084;-84
2022/10/01 06:10:12;;;;;;;10.27;4.38;;;;;;;14.65;100.00;100468.09;5031756;28;20025;-82
2022/10/01 06:12:38;;;;;;;4.03;1.63;;;;;;;14.68;100.00;100460.69;5013647;28;20056;-84
2022/10/01 06:15:03;;;;;;;8.32;1.80;;;;;;;14.76;100.00;100468.50;5013391;28;20056;-83
2022/10/01 06:17:29;;;;;;;5.57;2.17;;;;;;;14.84;100.00;100472.91;5013791;28;20045;-84
2022/10/01 06:19:54;;;;;;;4.28;1.55;;;;;;;14.89;100.00;100476.66;5042878;28;20068;-86
2022/10/01 06:22:20;;;;;;;5.22;1.30;;;;;;;14.92;100.00;100481.56;5051353;28;20045;-83
2022/10/01 06:24:45;;;;;;;11.85;2.47;;;;;;;14.99;100.00;100486.13;5051392;28;20553;-87
2022/10/01 06:27:11;;;;;;;6.85;1.33;;;;;;;14.99;100.00;100494.81;5050430;28;20032;-85
2022/10/01 06:29:36;;;;;;;3.53;1.17;;;;;;;14.94;100.00;100500.56;5047551;28;20025;-81
2022/10/01 06:32:02;;;;;;;5.55;1.27;;;;;;;14.91;100.00;100498.28;5049822;28;20029;-85
2022/10/01 06:34:27;;;;;;;6.45;0.88;;;;;;;14.86;100.00;100497.97;5042781;28;20033;-85
2022/10/01 06:36:53;;;;;;;3.67;1.15;;;;;;;14.84;100.00;100505.19;5030615;28;20029;-84
2022/10/01 06:39:18;;;;;;;3.50;1.00;;;;;;;14.84;100.00;100510.44;5029762;28;20029;-83
2022/10/01 06:41:46;;;;;;;5.97;1.38;;;;;;;14.89;100.00;100523.06;5045192;28;20322;-84
2022/10/01 06:44:12;;;;;;;3.10;1.23;;;;;;;14.90;100.00;100525.50;5032182;28;20056;-84
2022/10/01 06:46:40;;;;;;;6.43;1.05;;;;;;;14.92;100.00;100533.22;5032203;28;20080;-83
2022/10/01 06:49:05;;;;;;;2.45;0.98;;;;;;;14.89;100.00;100547.47;5048897;28;20104;-83
2022/10/01 06:54:17;;;;;;;5.63;2.20;;;;;;;14.89;100.00;100550.09;5049705;28;20408;-85
2022/10/01 06:56:42;;;;;;;12.60;6.22;;;;;;;14.89;100.00;100557.97;5038115;28;20045;-84
2022/10/01 06:59:08;;;;;;;24.00;7.80;;;;;;;14.86;100.00;100558.31;5024660;28;20029;-83
2022/10/01 07:01:35;;;;;;;28.60;8.52;;;;;;;14.88;100.00;100556.34;5042894;28;20040;-84
2022/10/01 07:04:01;;;;;;;23.60;9.45;;;;;;;14.92;100.00;100562.06;5011173;28;20347;-84
2022/10/01 07:06:26;;;;;;;18.65;10.55;;;;;;;14.91;100.00;100566.50;5045266;28;20033;-84
2022/10/01 07:08:52;;;;;;;33.92;14.50;;;;;;;14.89;100.00;100571.09;5019049;28;20021;-84
2022/10/01 07:11:18;;;;;;;69.88;16.23;;;;;;;14.91;100.00;100578.78;5012055;28;20024;-84
2022/10/01 07:13:44;;;;;;;31.60;13.98;;;;;;;14.91;100.00;100574.38;5037168;28;20535;-84
2022/10/01 07:16:09;;;;;;;25.15;12.27;;;;;;;14.86;100.00;100579.31;5029400;28;20161;-84
2022/10/01 07:18:36;;;;;;;33.10;13.15;;;;;;;14.84;100.00;100577.81;5031465;28;20103;-83
2022/10/01 07:21:01;;;;;;;23.60;12.10;;;;;;;14.79;100.00;100586.19;5028270;28;20044;-83
2022/10/01 07:23:27;;;;;;;16.23;9.32;;;;;;;14.76;100.00;100581.28;5049648;28;20036;-81
2022/10/01 07:25:55;;;;;;;18.48;8.70;;;;;;;14.73;100.00;100580.81;5049222;28;20110;-82
2022/10/01 07:28:24;;;;;;;18.30;9.25;;;;;;;14.74;100.00;100593.75;5050390;28;20029;-81
2022/10/01 07:31:01;;;;;;;17.23;8.02;;;;;;;14.76;100.00;100593.59;5031556;28;20030;-84
2022/10/01 07:33:27;;;;;;;17.48;8.55;;;;;;;14.78;100.00;100594.25;5010584;28;20389;-84
2022/10/01 07:35:52;;;;;;;15.02;7.95;;;;;;;14.74;100.00;100591.13;5028675;28;20021;-84
2022/10/01 07:38:18;;;;;;;18.30;7.85;;;;;;;14.72;100.00;100594.91;5029688;28;20083;-80
2022/10/01 07:40:50;;;;;;;14.07;6.63;;;;;;;14.72;100.00;100602.78;5017409;28;20040;-82
2022/10/01 07:43:15;;;;;;;15.70;7.07;;;;;;;14.73;100.00;100607.84;5042742;28;20504;-83
2022/10/01 07:45:45;;;;;;;13.52;7.10;;;;;;;14.71;100.00;100607.19;5049223;28;20036;-81
2022/10/01 07:48:13;;;;;;;13.80;7.15;;;;;;;14.69;100.00;100611.78;5049570;28;20063;-82
2022/10/01 07:50:42;;;;;;;12.38;6.53;;;;;;;14.72;100.00;100616.72;5032471;28;20036;-84
2022/10/01 07:53:08;;;;;;;11.98;6.43;;;;;;;14.73;100.00;100620.16;5028666;28;20640;-82
2022/10/01 07:55:33;;;;;;;10.88;6.53;;;;;;;14.78;100.00;100618.66;5017388;28;20477;-81
2022/10/01 07:58:00;;;;;;;9.75;6.10;;;;;;;14.80;100.00;100624.56;5011407;28;20032;-84
2022/10/01 08:00:28;;;;;;;12.52;6.53;;;;;;;14.83;100.00;100626.84;5028898;28;20462;-82
2022/10/01 08:02:55;;;;;;;14.60;6.03;;;;;;;14.84;100.00;100631.09;5028636;28;20026;-86
2022/10/01 08:05:25;;;;;;;12.90;6.15;;;;;;;14.86;100.00;100641.44;5038965;28;20035;-83
2022/10/01 08:07:53;;;;;;;13.05;4.72;;;;;;;14.88;100.00;100652.59;5046289;28;20480;-80
2022/10/01 08:10:22;;;;;;;8.05;4.97;;;;;;;14.89;100.00;100647.16;5048364;28;20029;-81
2022/10/01 08:12:47;;;;;;;7.63;4.55;;;;;;;14.91;100.00;100647.00;5044647;28;20021;-84
2022/10/01 08:15:15;;;;;;;9.38;5.55;;;;;;;14.90;100.00;100651.44;5036634;28;20048;-83
2022/10/01 08:17:41;;;;;;;9.30;4.47;;;;;;;14.98;100.00;100655.03;5029605;28;20147;-80
2022/10/01 08:20:09;;;;;;;8.10;4.70;;;;;;;15.05;100.00;100659.44;5047447;28;20033;-82
2022/10/01 08:22:35;;;;;;;8.85;5.07;;;;;;;15.09;100.00;100659.91;5030633;28;20028;-82
2022/10/01 08:25:01;;;;;;;10.50;4.90;;;;;;;15.17;100.00;100658.06;5031574;28;20037;-83
2022/10/01 08:27:27;;;;;;;10.07;4.55;;;;;;;15.15;100.00;100653.97;5011418;28;20037;-81
2022/10/01 08:29:53;;;;;;;10.15;4.30;;;;;;;15.12;100.00;100660.38;5036046;28;20048;-81
2022/10/01 08:32:19;;;;;;;3.78;3.40;;;;;;;15.10;100.00;100661.56;5011032;28;20030;-83
2022/10/01 08:34:45;;;;;;;10.48;3.17;;;;;;;15.13;100.00;100666.44;5028129;28;20030;-82
2022/10/01 08:37:10;;;;;;;5.38;2.22;;;;;;;15.17;100.00;100668.56;5028475;28;20036;-85
2022/10/01 08:39:36;;;;;;;4.68;2.45;;;;;;;15.20;100.00;100673.47;5027814;28;20029;-85
2022/10/01 08:42:25;;;;;;;11.25;2.88;;;;;;;15.29;100.00;100671.63;5008169;28;20147;-83
2022/10/01 08:44:51;;;;;;;5.13;1.98;;;;;;;15.29;100.00;100676.88;5031047;28;20059;-84
2022/10/01 08:47:39;;;;;;;2.35;1.60;;;;;;;15.18;100.00;100669.38;5035101;28;20029;-84
2022/10/01 08:50:54;;;;;;;7.30;1.45;;;;;;;15.16;100.00;100680.03;5024746;28;20083;-84
2022/10/01 08:53:32;;;;;;;6.93;1.83;;;;;;;15.22;100.00;100678.53;5034353;28;20102;-83
2022/10/01 08:55:59;;;;;;;3.13;1.50;;;;;;;15.30;100.00;100689.03;5027311;28;20037;-83
2022/10/01 08:58:33;;;;;;;4.75;1.52;;;;;;;15.29;100.00;100692.63;5032637;28;20523;-82
2022/10/01 09:00:58;;;;;;;4.82;1.38;;;;;;;15.32;100.00;100691.47;5038371;28;20029;-83
2022/10/01 09:03:28;;;;;;;3.08;1.33;;;;;;;15.28;100.00;100696.25;5032066;28;20445;-83
2022/10/01 09:06:20;;;;;;;5.75;2.53;;;;;;;15.23;100.00;100696.75;5031951;28;20533;-83
2022/10/01 09:08:54;;;;;;;5.97;4.35;;;;;;;15.13;100.00;100697.91;5017402;28;20546;-82
2022/10/01 09:11:50;;;;;;;3.58;2.47;;;;;;;15.06;100.00;100686.50;5041129;28;20115;-83
2022/10/01 09:14:40;;;;;;;3.75;1.08;;;;;;;15.12;100.00;100678.72;5017703;28;20045;-83
2022/10/01 09:17:32;;;;;;;2.90;1.25;;;;;;;15.13;100.00;100676.94;5033098;28;20044;-83
2022/10/01 09:20:05;;;;;;;4.07;1.20;;;;;;;15.20;100.00;100677.91;5017962;28;20121;-84
2022/10/01 09:22:35;;;;;;;5.40;0.90;;;;;;;15.25;100.00;100678.22;5014029;28;20037;-82
2022/10/01 09:25:25;;;;;;;3.75;1.58;;;;;;;15.22;100.00;100675.91;5014873;28;20192;-83
2022/10/01 09:28:00;;;;;;;3.70;1.45;;;;;;;15.27;100.00;100671.81;5012849;28;20033;-84
2022/10/01 09:30:27;;;;;;;1.80;1.20;;;;;;;15.24;100.00;100672.13;5042297;28;20516;-83
2022/10/01 09:33:09;;;;;;;2.80;0.98;;;;;;;15.31;100.00;100668.84;5032710;28;20040;-83
2022/10/01 09:36:00;;;;;;;1.40;0.90;;;;;;;15.41;100.00;100669.47;5030554;28;20072;-82
2022/10/01 09:38:37;;;;;;;3.50;1.88;;;;;;;15.41;100.00;100680.78;4999764;28;20049;-83
2022/10/01 09:41:02;;;;;;;4.72;1.45;;;;;;;15.51;100.00;100673.53;5036499;28;20040;-82
2022/10/01 09:43:31;;;;;;;3.00;1.13;;;;;;;15.51;100.00;100670.06;5050787;28;20035;-83
2022/10/01 09:45:57;;;;;;;7.70;1.15;;;;;;;15.47;100.00;100666.16;5046069;28;20489;-83
2022/10/01 09:48:26;;;;;;;2.90;0.77;;;;;;;15.38;100.00;100673.25;5031935;28;20107;-83
2022/10/01 09:51:03;;;;;;;1.50;0.68;;;;;;;15.36;100.00;100672.59;5031788;28;20139;-84
2022/10/01 09:54:11;;;;;;;2.45;1.05;;;;;;;15.48;100.00;100671.22;5031497;28;20029;-84
2022/10/01 09:57:00;;;;;;;3.40;0.80;;;;;;;15.51;100.00;100670.88;5003441;28;20040;-82
2022/10/01 10:00:03;;;;;;;2.53;1.00;;;;;;;15.52;100.00;100661.22;5051071;28;20044;-83
2022/10/01 10:02:37;;;;;;;3.78;1.17;;;;;;;15.56;100.00;100658.09;5048999;28;20467;-84
2022/10/01 10:05:05;;;;;;;4.72;1.08;;;;;;;15.60;100.00;100661.16;5032823;28;20119;-82
2022/10/01 10:07:33;;;;;;;2.47;1.05;;;;;;;15.62;100.00;100658.38;5047978;28;20485;-82
2022/10/01 10:10:19;;;;;;;3.78;0.70;;;;;;;15.49;100.00;100657.13;5051182;28;20116;-84
2022/10/01 10:12:47;;;;;;;4.38;0.85;;;;;;;15.59;100.00;100657.75;5045898;28;20029;-82
2022/10/01 10:15:20;;;;;;;2.95;0.68;;;;;;;15.66;100.00;100655.22;5030551;28;20033;-83
2022/10/01 10:17:51;;;;;;;2.47;0.60;;;;;;;15.75;100.00;100661.25;5043527;28;20045;-81
2022/10/01 10:20:22;;;;;;;2.45;0.47;;;;;;;15.68;100.00;100662.94;5050550;28;20369;-83
2022/10/01 10:22:48;;;;;;;1.70;0.55;;;;;;;15.60;100.00;100664.63;5044111;28;20094;-80
2022/10/01 10:25:21;;;;;;;0.75;0.40;;;;;;;15.46;100.00;100662.72;5029400;28;20248;-83
2022/10/01 10:27:53;;;;;;;1.40;0.30;;;;;;;15.49;100.00;100672.06;5032316;28;20073;-83
2022/10/01 10:30:23;;;;;;;3.63;0.43;;;;;;;15.43;100.00;100668.31;5030653;28;20051;-81
2022/10/01 10:32:49;;;;;;;2.15;0.50;;;;;;;15.45;100.00;100671.56;5043505;28;20032;-82
2022/10/01 10:35:23;;;;;;;4.22;0.32;;;;;;;15.41;100.00;100677.34;5049556;28;20025;-82
2022/10/01 10:37:52;;;;;;;2.17;0.30;;;;;;;15.40;100.00;100658.13;5039404;28;20033;-83
2022/10/01 10:40:22;;;;;;;3.63;0.40;;;;;;;15.42;100.00;100661.41;5048213;28;20480;-82
2022/10/01 10:42:52;;;;;;;1.23;0.38;;;;;;;15.42;100.00;100661.41;5041733;28;20045;-83
2022/10/01 10:45:29;;;;;;;3.55;0.45;;;;;;;15.51;100.00;100668.28;5029622;28;20049;-82
2022/10/01 10:47:56;;;;;;;1.17;0.30;;;;;;;15.44;100.00;100662.06;5014451;28;20408;-82
2022/10/01 10:50:43;;;;;;;1.77;0.22;;;;;;;15.42;100.00;100658.78;5047869;28;20032;-81
2022/10/01 10:53:26;;;;;;;1.60;0.43;;;;;;;15.65;100.00;100655.41;5042325;28;20029;-82
2022/10/01 10:56:04;;;;;;;2.47;0.32;;;;;;;15.69;100.00;100659.31;5029626;28;20041;-80
2022/10/01 10:58:32;;;;;;;1.02;0.20;;;;;;;15.71;100.00;100659.97;5027660;28;20037;-82
2022/10/01 11:01:08;;;;;;;3.83;0.30;;;;;;;15.76;100.00;100661.09;5034561;28;20061;-79
2022/10/01 11:03:37;;;;;;;2.03;0.30;;;;;;;15.78;100.00;100647.78;5036050;28;20036;-81
2022/10/01 11:06:24;;;;;;;1.25;0.35;;;;;;;15.69;100.00;100647.00;5039005;28;20492;-82
2022/10/01 11:09:05;;;;;;;1.60;0.22;;;;;;;15.60;100.00;100648.84;5028427;28;20504;-81
2022/10/01 11:11:48;;;;;;;2.80;0.30;;;;;;;15.70;100.00;100651.28;5026259;28;20725;-80
2022/10/01 11:14:28;;;;;;;2.60;0.40;;;;;;;15.74;100.00;100641.25;5049150;28;20037;-82
2022/10/01 11:16:56;;;;;;;3.47;0.20;;;;;;;15.77;100.00;100646.16;5047428;28;20029;-82
2022/10/01 11:19:34;;;;;;;3.45;0.20;;;;;;;15.91;100.00;100640.16;5048832;28;20492;-81
2022/10/01 11:22:18;;;;;;;0.98;0.30;;;;;;;16.01;100.00;100634.66;5048727;28;20036;-80
2022/10/01 11:24:52;;;;;;;0.93;0.20;;;;;;;16.07;100.00;100634.75;5044642;28;20037;-80
2022/10/01 11:27:42;;;;;;;4.03;0.22;;;;;;;16.04;100.00;100631.69;5045637;28;20033;-80
2022/10/01 11:30:28;;;;;;;0.57;0.20;;;;;;;16.04;100.00;100624.63;5045437;28;20036;-80
2022/10/01 11:33:27;;;;;;;1.13;0.20;;;;;;;15.98;100.00;100619.25;5043451;28;20473;-81
2022/10/01 11:36:14;;;;;;;0.70;0.20;;;;;;;15.94;100.00;100618.78;5048091;28;20052;-80